sensor_id;sensor_type;location;lat;lon;timestamp;temperature;humidity
22966;DHT22;11649;48.090;9.754;2022-08-21T00:02:18;16.40;99.90
22966;DHT22;11649;48.090;9.754;2022-08-21T00:04:46;16.30;99.90
22966;DHT22;11649;48.090;9.754;2022-08-21T00:07:23;16.30;99.90
22966;DHT22;11649;48.090;9.754;2022-08-21T00:09:51;16.50;99.90
22966;DHT22;11649;48.090;9.754;2022-08-21T00:12:18;17.10;99.90
22966;DHT22;11649;48.090;9.754;2022-08-21T00:14:45;16.30;99.90
22966;DHT22;11649;48.090;9.754;2022-08-21T00:17:12;16.00;99.90
22966;DHT22;11649;48.090;9.754;2022-08-21T00:19:39;16.40;99.90
22966;DHT22;11649;48.090;9.754;2022-08-21T00:22:06;16.40;99.90
22966;DHT22;11649;48.090;9.754;2022-08-21T00:24:33;16.40;99.90
22966;DHT22;11649;48.090;9.754;2022-08-21T00:27:01;16.20;99.90
22966;DHT22;11649;48.090;9.754;2022-08-21T00:29:28;15.70;99.90
22966;DHT22;11649;48.090;9.754;2022-08-21T00:31:54;15.70;99.90
22966;DHT22;11649;48.090;9.754;2022-08-21T00:34:21;15.80;99.90
22966;DHT22;11649;48.090;9.754;2022-08-21T00:36:48;16.50;99.90
22966;DHT22;11649;48.090;9.754;2022-08-21T00:39:15;16.30;99.90
22966;DHT22;11649;48.090;9.754;2022-08-21T00:41:42;15.80;99.90
22966;DHT22;11649;48.090;9.754;2022-08-21T00:44:13;16.40;99.90
22966;DHT22;11649;48.090;9.754;2022-08-21T00:46:40;15.80;99.90
22966;DHT22;11649;48.090;9.754;2022-08-21T00:49:09;15.80;99.90
22966;DHT22;11649;48.090;9.754;2022-08-21T00:51:42;15.90;99.90
22966;DHT22;11649;48.090;9.754;2022-08-21T00:54:10;16.10;99.90
22966;DHT22;11649;48.090;9.754;2022-08-21T00:56:49;16.00;99.90
22966;DHT22;11649;48.090;9.754;2022-08-21T00:59:18;15.90;99.90
22966;DHT22;11649;48.090;9.754;2022-08-21T01:01:46;16.20;99.90
22966;DHT22;11649;48.090;9.754;2022-08-21T01:04:13;16.30;99.90
22966;DHT22;11649;48.090;9.754;2022-08-21T01:06:41;15.70;99.90
22966;DHT22;11649;48.090;9.754;2022-08-21T01:09:08;15.70;99.90
22966;DHT22;11649;48.090;9.754;2022-08-21T01:11:35;16.20;99.90
22966;DHT22;11649;48.090;9.754;2022-08-21T01:14:03;16.00;99.90
22966;DHT22;11649;48.090;9.754;2022-08-21T01:16:30;16.00;99.90
22966;DHT22;11649;48.090;9.754;2022-08-21T01:18:57;16.10;99.90
22966;DHT22;11649;48.090;9.754;2022-08-21T01:21:26;16.30;99.90
22966;DHT22;11649;48.090;9.754;2022-08-21T01:23:55;16.00;99.90
22966;DHT22;11649;48.090;9.754;2022-08-21T01:26:25;16.30;99.90
22966;DHT22;11649;48.090;9.754;2022-08-21T01:29:15;15.80;99.90
22966;DHT22;11649;48.090;9.754;2022-08-21T01:31:43;15.80;99.90
22966;DHT22;11649;48.090;9.754;2022-08-21T01:34:11;15.90;99.90
22966;DHT22;11649;48.090;9.754;2022-08-21T01:36:38;16.30;99.90
22966;DHT22;11649;48.090;9.754;2022-08-21T01:39:05;16.30;99.90
22966;DHT22;11649;48.090;9.754;2022-08-21T01:41:32;16.00;99.90
22966;DHT22;11649;48.090;9.754;2022-08-21T01:43:59;15.80;99.90
22966;DHT22;11649;48.090;9.754;2022-08-21T01:46:26;16.00;99.90
22966;DHT22;11649;48.090;9.754;2022-08-21T01:48:52;16.10;99.90
22966;DHT22;11649;48.090;9.754;2022-08-21T01:51:19;16.30;99.90
22966;DHT22;11649;48.090;9.754;2022-08-21T01:53:46;16.00;99.90
22966;DHT22;11649;48.090;9.754;2022-08-21T01:56:14;16.10;99.90
22966;DHT22;11649;48.090;9.754;2022-08-21T01:58:44;16.10;99.90
22966;DHT22;11649;48.090;9.754;2022-08-21T02:01:11;16.20;99.90
22966;DHT22;11649;48.090;9.754;2022-08-21T02:03:39;15.70;99.90
22966;DHT22;11649;48.090;9.754;2022-08-21T02:06:13;16.00;99.90
22966;DHT22;11649;48.090;9.754;2022-08-21T02:08:40;15.90;99.90
22966;DHT22;11649;48.090;9.754;2022-08-21T02:11:07;15.90;99.90
22966;DHT22;11649;48.090;9.754;2022-08-21T02:13:34;15.60;99.90
22966;DHT22;11649;48.090;9.754;2022-08-21T02:16:01;15.70;99.90
22966;DHT22;11649;48.090;9.754;2022-08-21T02:18:28;15.40;99.90
22966;DHT22;11649;48.090;9.754;2022-08-21T02:20:55;16.00;99.90
22966;DHT22;11649;48.090;9.754;2022-08-21T02:23:23;15.60;99.90
22966;DHT22;11649;48.090;9.754;2022-08-21T02:25:54;15.80;99.90
22966;DHT22;11649;48.090;9.754;2022-08-21T02:28:22;15.70;99.90
22966;DHT22;11649;48.090;9.754;2022-08-21T02:30:49;15.50;99.90
22966;DHT22;11649;48.090;9.754;2022-08-21T02:33:18;16.00;99.90
22966;DHT22;11649;48.090;9.754;2022-08-21T02:35:46;15.80;99.90
22966;DHT22;11649;48.090;9.754;2022-08-21T02:38:26;16.40;99.90
22966;DHT22;11649;48.090;9.754;2022-08-21T02:40:54;15.50;99.90
22966;DHT22;11649;48.090;9.754;2022-08-21T02:43:23;15.80;99.90
22966;DHT22;11649;48.090;9.754;2022-08-21T02:45:51;15.90;99.90
22966;DHT22;11649;48.090;9.754;2022-08-21T02:48:21;15.60;99.90
22966;DHT22;11649;48.090;9.754;2022-08-21T02:50:57;15.90;99.90
22966;DHT22;11649;48.090;9.754;2022-08-21T02:53:25;15.70;99.90
22966;DHT22;11649;48.090;9.754;2022-08-21T02:55:53;15.80;99.90
22966;DHT22;11649;48.090;9.754;2022-08-21T02:58:23;15.80;99.90
22966;DHT22;11649;48.090;9.754;2022-08-21T03:00:50;16.00;99.90
22966;DHT22;11649;48.090;9.754;2022-08-21T03:03:17;15.50;99.90
22966;DHT22;11649;48.090;9.754;2022-08-21T03:05:44;15.70;99.90
22966;DHT22;11649;48.090;9.754;2022-08-21T03:08:13;16.10;99.90
22966;DHT22;11649;48.090;9.754;2022-08-21T03:10:42;15.50;99.90
22966;DHT22;11649;48.090;9.754;2022-08-21T03:13:10;16.40;99.90
22966;DHT22;11649;48.090;9.754;2022-08-21T03:15:37;16.20;99.90
22966;DHT22;11649;48.090;9.754;2022-08-21T03:18:04;16.30;99.90
22966;DHT22;11649;48.090;9.754;2022-08-21T03:20:32;15.70;99.90
22966;DHT22;11649;48.090;9.754;2022-08-21T03:23:00;15.70;99.90
22966;DHT22;11649;48.090;9.754;2022-08-21T03:25:28;16.00;99.90
22966;DHT22;11649;48.090;9.754;2022-08-21T03:28:09;15.90;99.90
22966;DHT22;11649;48.090;9.754;2022-08-21T03:30:43;15.80;99.90
22966;DHT22;11649;48.090;9.754;2022-08-21T03:33:11;15.60;99.90
22966;DHT22;11649;48.090;9.754;2022-08-21T03:35:42;15.60;99.90
22966;DHT22;11649;48.090;9.754;2022-08-21T03:38:09;15.90;99.90
22966;DHT22;11649;48.090;9.754;2022-08-21T03:40:36;15.90;99.90
22966;DHT22;11649;48.090;9.754;2022-08-21T03:43:04;15.40;99.90
22966;DHT22;11649;48.090;9.754;2022-08-21T03:45:31;16.00;99.90
22966;DHT22;11649;48.090;9.754;2022-08-21T03:48:01;15.80;99.90
22966;DHT22;11649;48.090;9.754;2022-08-21T03:50:31;15.80;99.90
22966;DHT22;11649;48.090;9.754;2022-08-21T03:53:00;16.00;99.90
22966;DHT22;11649;48.090;9.754;2022-08-21T03:55:27;16.00;99.90
22966;DHT22;11649;48.090;9.754;2022-08-21T03:57:54;15.40;99.90
22966;DHT22;11649;48.090;9.754;2022-08-21T04:00:22;16.00;99.90
22966;DHT22;11649;48.090;9.754;2022-08-21T04:02:50;15.50;99.90
22966;DHT22;11649;48.090;9.754;2022-08-21T04:05:18;15.40;99.90
22966;DHT22;11649;48.090;9.754;2022-08-21T04:08:03;15.60;99.90
22966;DHT22;11649;48.090;9.754;2022-08-21T04:10:31;15.30;99.90
22966;DHT22;11649;48.090;9.754;2022-08-21T04:12:58;15.30;99.90
22966;DHT22;11649;48.090;9.754;2022-08-21T04:15:26;15.70;99.90
22966;DHT22;11649;48.090;9.754;2022-08-21T04:17:53;16.00;99.90
22966;DHT22;11649;48.090;9.754;2022-08-21T04:20:21;15.70;99.90
22966;DHT22;11649;48.090;9.754;2022-08-21T04:22:49;15.70;99.90
22966;DHT22;11649;48.090;9.754;2022-08-21T04:25:19;15.40;99.90
22966;DHT22;11649;48.090;9.754;2022-08-21T04:27:46;15.40;99.90
22966;DHT22;11649;48.090;9.754;2022-08-21T04:30:14;15.60;99.90
22966;DHT22;11649;48.090;9.754;2022-08-21T04:32:43;15.40;99.90
22966;DHT22;11649;48.090;9.754;2022-08-21T04:35:12;15.70;99.90
22966;DHT22;11649;48.090;9.754;2022-08-21T04:37:39;15.30;99.90
22966;DHT22;11649;48.090;9.754;2022-08-21T04:40:09;15.20;99.90
22966;DHT22;11649;48.090;9.754;2022-08-21T04:42:47;15.10;99.90
22966;DHT22;11649;48.090;9.754;2022-08-21T04:45:19;15.20;99.90
22966;DHT22;11649;48.090;9.754;2022-08-21T04:47:49;15.80;99.90
22966;DHT22;11649;48.090;9.754;2022-08-21T04:50:23;15.40;99.90
22966;DHT22;11649;48.090;9.754;2022-08-21T04:52:51;16.00;99.90
22966;DHT22;11649;48.090;9.754;2022-08-21T04:55:18;15.30;99.90
22966;DHT22;11649;48.090;9.754;2022-08-21T04:57:46;15.10;99.90
22966;DHT22;11649;48.090;9.754;2022-08-21T05:00:16;15.30;99.90
22966;DHT22;11649;48.090;9.754;2022-08-21T05:02:45;15.60;99.90
22966;DHT22;11649;48.090;9.754;2022-08-21T05:05:15;15.10;99.90
22966;DHT22;11649;48.090;9.754;2022-08-21T05:07:44;15.60;99.90
22966;DHT22;11649;48.090;9.754;2022-08-21T05:10:12;15.10;99.90
22966;DHT22;11649;48.090;9.754;2022-08-21T05:12:41;15.40;99.90
22966;DHT22;11649;48.090;9.754;2022-08-21T05:15:10;15.50;99.90
22966;DHT22;11649;48.090;9.754;2022-08-21T05:17:40;15.20;99.90
22966;DHT22;11649;48.090;9.754;2022-08-21T05:20:08;16.00;99.90
22966;DHT22;11649;48.090;9.754;2022-08-21T05:22:36;15.20;99.90
22966;DHT22;11649;48.090;9.754;2022-08-21T05:25:03;15.30;99.90
22966;DHT22;11649;48.090;9.754;2022-08-21T05:27:37;15.20;99.90
22966;DHT22;11649;48.090;9.754;2022-08-21T05:30:06;15.30;99.90
22966;DHT22;11649;48.090;9.754;2022-08-21T05:32:35;15.20;99.90
22966;DHT22;11649;48.090;9.754;2022-08-21T05:35:05;15.30;99.90
22966;DHT22;11649;48.090;9.754;2022-08-21T05:37:32;15.20;99.90
22966;DHT22;11649;48.090;9.754;2022-08-21T05:40:00;15.30;99.90
22966;DHT22;11649;48.090;9.754;2022-08-21T05:42:48;15.20;99.90
22966;DHT22;11649;48.090;9.754;2022-08-21T05:45:27;15.20;99.90
22966;DHT22;11649;48.090;9.754;2022-08-21T05:50:37;15.00;99.90
22966;DHT22;11649;48.090;9.754;2022-08-21T05:53:05;15.40;99.90
22966;DHT22;11649;48.090;9.754;2022-08-21T05:55:33;15.60;99.90
22966;DHT22;11649;48.090;9.754;2022-08-21T05:58:00;15.50;99.90
22966;DHT22;11649;48.090;9.754;2022-08-21T06:00:27;15.60;99.90
22966;DHT22;11649;48.090;9.754;2022-08-21T06:02:54;16.00;99.90
22966;DHT22;11649;48.090;9.754;2022-08-21T06:05:21;16.30;99.90
22966;DHT22;11649;48.090;9.754;2022-08-21T06:08:03;15.70;99.90
22966;DHT22;11649;48.090;9.754;2022-08-21T06:10:30;15.50;99.90
22966;DHT22;11649;48.090;9.754;2022-08-21T06:12:57;15.60;99.90
22966;DHT22;11649;48.090;9.754;2022-08-21T06:15:25;16.10;99.90
22966;DHT22;11649;48.090;9.754;2022-08-21T06:17:53;16.70;99.90
22966;DHT22;11649;48.090;9.754;2022-08-21T06:20:20;16.40;99.90
22966;DHT22;11649;48.090;9.754;2022-08-21T06:22:47;15.60;99.90
22966;DHT22;11649;48.090;9.754;2022-08-21T06:25:13;15.80;99.90
22966;DHT22;11649;48.090;9.754;2022-08-21T06:27:40;15.60;99.90
22966;DHT22;11649;48.090;9.754;2022-08-21T06:30:08;15.50;99.90
22966;DHT22;11649;48.090;9.754;2022-08-21T06:32:35;15.60;99.90
22966;DHT22;11649;48.090;9.754;2022-08-21T06:35:03;16.00;99.90
22966;DHT22;11649;48.090;9.754;2022-08-21T06:37:30;15.80;99.90
22966;DHT22;11649;48.090;9.754;2022-08-21T06:39:57;16.50;99.90
22966;DHT22;11649;48.090;9.754;2022-08-21T06:42:25;16.70;99.90
22966;DHT22;11649;48.090;9.754;2022-08-21T06:44:54;16.30;99.90
22966;DHT22;11649;48.090;9.754;2022-08-21T06:47:22;16.50;99.90
22966;DHT22;11649;48.090;9.754;2022-08-21T06:49:49;16.00;99.90
22966;DHT22;11649;48.090;9.754;2022-08-21T06:52:16;16.40;99.90
22966;DHT22;11649;48.090;9.754;2022-08-21T06:54:43;16.20;99.90
22966;DHT22;11649;48.090;9.754;2022-08-21T06:57:10;16.10;99.90
22966;DHT22;11649;48.090;9.754;2022-08-21T06:59:36;16.90;99.90
22966;DHT22;11649;48.090;9.754;2022-08-21T07:02:03;16.90;99.90
22966;DHT22;11649;48.090;9.754;2022-08-21T07:04:30;16.40;99.90
22966;DHT22;11649;48.090;9.754;2022-08-21T07:06:57;16.50;99.90
22966;DHT22;11649;48.090;9.754;2022-08-21T07:09:24;17.00;99.90
22966;DHT22;11649;48.090;9.754;2022-08-21T07:11:54;16.30;99.90
22966;DHT22;11649;48.090;9.754;2022-08-21T07:14:22;16.50;99.90
22966;DHT22;11649;48.090;9.754;2022-08-21T07:16:49;16.40;99.90
22966;DHT22;11649;48.090;9.754;2022-08-21T07:19:18;16.80;99.90
22966;DHT22;11649;48.090;9.754;2022-08-21T07:21:45;17.60;99.90
22966;DHT22;11649;48.090;9.754;2022-08-21T07:24:13;16.80;99.90
22966;DHT22;11649;48.090;9.754;2022-08-21T07:26:40;17.00;99.90
22966;DHT22;11649;48.090;9.754;2022-08-21T07:29:07;17.10;99.90
22966;DHT22;11649;48.090;9.754;2022-08-21T07:31:34;17.50;99.90
22966;DHT22;11649;48.090;9.754;2022-08-21T07:34:01;17.00;99.90
22966;DHT22;11649;48.090;9.754;2022-08-21T07:36:28;17.10;99.90
22966;DHT22;11649;48.090;9.754;2022-08-21T07:38:58;17.20;99.90
22966;DHT22;11649;48.090;9.754;2022-08-21T07:41:28;17.40;99.90
22966;DHT22;11649;48.090;9.754;2022-08-21T07:43:56;17.40;99.90
22966;DHT22;11649;48.090;9.754;2022-08-21T07:46:24;17.30;99.90
22966;DHT22;11649;48.090;9.754;2022-08-21T07:48:52;17.30;99.90
22966;DHT22;11649;48.090;9.754;2022-08-21T07:51:22;17.50;99.90
22966;DHT22;11649;48.090;9.754;2022-08-21T07:53:51;18.00;99.90
22966;DHT22;11649;48.090;9.754;2022-08-21T07:56:19;17.90;99.90
22966;DHT22;11649;48.090;9.754;2022-08-21T07:58:46;17.50;99.90
22966;DHT22;11649;48.090;9.754;2022-08-21T08:01:14;17.50;99.90
22966;DHT22;11649;48.090;9.754;2022-08-21T08:03:41;18.20;99.90
22966;DHT22;11649;48.090;9.754;2022-08-21T08:06:08;17.50;99.90
22966;DHT22;11649;48.090;9.754;2022-08-21T08:08:40;17.80;99.90
22966;DHT22;11649;48.090;9.754;2022-08-21T08:11:08;18.50;99.90
22966;DHT22;11649;48.090;9.754;2022-08-21T08:13:43;18.10;99.90
22966;DHT22;11649;48.090;9.754;2022-08-21T08:16:11;18.10;99.90
22966;DHT22;11649;48.090;9.754;2022-08-21T08:18:38;18.70;99.90
22966;DHT22;11649;48.090;9.754;2022-08-21T08:21:05;18.30;99.90
22966;DHT22;11649;48.090;9.754;2022-08-21T08:23:32;18.30;99.90
22966;DHT22;11649;48.090;9.754;2022-08-21T08:26:00;18.30;99.90
22966;DHT22;11649;48.090;9.754;2022-08-21T08:28:29;18.30;99.90
22966;DHT22;11649;48.090;9.754;2022-08-21T08:30:59;18.40;99.90
22966;DHT22;11649;48.090;9.754;2022-08-21T08:33:28;18.60;99.90
22966;DHT22;11649;48.090;9.754;2022-08-21T08:35:55;18.70;99.90
22966;DHT22;11649;48.090;9.754;2022-08-21T08:38:23;18.60;99.90
22966;DHT22;11649;48.090;9.754;2022-08-21T08:43:42;18.80;99.90
22966;DHT22;11649;48.090;9.754;2022-08-21T08:46:14;18.90;99.90
22966;DHT22;11649;48.090;9.754;2022-08-21T08:51:27;18.90;99.90
22966;DHT22;11649;48.090;9.754;2022-08-21T08:54:00;19.10;99.90
22966;DHT22;11649;48.090;9.754;2022-08-21T08:56:32;19.00;99.90
22966;DHT22;11649;48.090;9.754;2022-08-21T08:59:07;19.10;99.90
22966;DHT22;11649;48.090;9.754;2022-08-21T09:01:34;19.30;99.90
22966;DHT22;11649;48.090;9.754;2022-08-21T09:04:05;19.30;99.90
22966;DHT22;11649;48.090;9.754;2022-08-21T09:09:25;19.30;99.90
22966;DHT22;11649;48.090;9.754;2022-08-21T09:12:36;19.40;99.90
22966;DHT22;11649;48.090;9.754;2022-08-21T09:20:37;19.50;99.90
22966;DHT22;11649;48.090;9.754;2022-08-21T09:26:25;19.60;99.90
22966;DHT22;11649;48.090;9.754;2022-08-21T09:28:57;19.80;99.90
22966;DHT22;11649;48.090;9.754;2022-08-21T09:31:34;19.90;99.90
22966;DHT22;11649;48.090;9.754;2022-08-21T09:34:04;20.00;99.90
22966;DHT22;11649;48.090;9.754;2022-08-21T09:36:45;20.00;99.90
22966;DHT22;11649;48.090;9.754;2022-08-21T09:39:22;20.00;99.90
22966;DHT22;11649;48.090;9.754;2022-08-21T09:42:00;20.00;99.90
22966;DHT22;11649;48.090;9.754;2022-08-21T09:44:29;20.00;99.90
22966;DHT22;11649;48.090;9.754;2022-08-21T09:46:56;20.20;99.90
22966;DHT22;11649;48.090;9.754;2022-08-21T09:49:32;20.40;99.90
22966;DHT22;11649;48.090;9.754;2022-08-21T09:52:00;20.50;99.90
22966;DHT22;11649;48.090;9.754;2022-08-21T09:54:37;20.60;99.90
22966;DHT22;11649;48.090;9.754;2022-08-21T09:59:54;20.90;99.90
22966;DHT22;11649;48.090;9.754;2022-08-21T10:02:30;21.00;99.90
22966;DHT22;11649;48.090;9.754;2022-08-21T10:05:08;21.00;99.90
22966;DHT22;11649;48.090;9.754;2022-08-21T10:07:38;21.10;99.90
22966;DHT22;11649;48.090;9.754;2022-08-21T10:13:27;21.20;99.90
22966;DHT22;11649;48.090;9.754;2022-08-21T10:16:07;21.20;99.90
22966;DHT22;11649;48.090;9.754;2022-08-21T10:18:40;21.20;99.90
22966;DHT22;11649;48.090;9.754;2022-08-21T10:24:31;21.30;99.90
22966;DHT22;11649;48.090;9.754;2022-08-21T10:27:14;21.30;99.90
22966;DHT22;11649;48.090;9.754;2022-08-21T10:29:59;21.50;99.90
22966;DHT22;11649;48.090;9.754;2022-08-21T10:35:12;21.70;99.90
22966;DHT22;11649;48.090;9.754;2022-08-21T10:37:55;21.90;99.90
22966;DHT22;11649;48.090;9.754;2022-08-21T10:49:12;22.10;99.90
22966;DHT22;11649;48.090;9.754;2022-08-21T10:56:58;22.00;99.90
22966;DHT22;11649;48.090;9.754;2022-08-21T10:59:44;22.10;99.90
22966;DHT22;11649;48.090;9.754;2022-08-21T11:02:31;22.20;99.90
22966;DHT22;11649;48.090;9.754;2022-08-21T11:05:14;22.10;99.90
22966;DHT22;11649;48.090;9.754;2022-08-21T11:07:55;22.00;99.90
22966;DHT22;11649;48.090;9.754;2022-08-21T11:10:44;21.70;99.90
22966;DHT22;11649;48.090;9.754;2022-08-21T11:13:45;21.50;99.90
22966;DHT22;11649;48.090;9.754;2022-08-21T11:17:15;21.50;99.90
22966;DHT22;11649;48.090;9.754;2022-08-21T11:19:31;21.70;99.90
22966;DHT22;11649;48.090;9.754;2022-08-21T11:22:39;21.70;99.90
22966;DHT22;11649;48.090;9.754;2022-08-21T11:27:43;22.00;99.90
22966;DHT22;11649;48.090;9.754;2022-08-21T11:30:12;22.20;99.90
22966;DHT22;11649;48.090;9.754;2022-08-21T11:36:02;22.40;99.90
22966;DHT22;11649;48.090;9.754;2022-08-21T11:38:42;22.60;99.90
22966;DHT22;11649;48.090;9.754;2022-08-21T11:41:25;22.50;99.90
22966;DHT22;11649;48.090;9.754;2022-08-21T11:44:02;22.80;99.90
22966;DHT22;11649;48.090;9.754;2022-08-21T11:49:49;23.00;99.90
22966;DHT22;11649;48.090;9.754;2022-08-21T11:52:31;23.00;99.90
22966;DHT22;11649;48.090;9.754;2022-08-21T11:55:06;23.00;99.90
22966;DHT22;11649;48.090;9.754;2022-08-21T11:57:56;23.00;99.90
22966;DHT22;11649;48.090;9.754;2022-08-21T12:00:31;23.30;99.90
22966;DHT22;11649;48.090;9.754;2022-08-21T12:03:08;23.00;99.90
22966;DHT22;11649;48.090;9.754;2022-08-21T12:06:04;23.10;99.80
22966;DHT22;11649;48.090;9.754;2022-08-21T12:08:35;23.20;99.90
22966;DHT22;11649;48.090;9.754;2022-08-21T12:11:07;23.20;99.90
22966;DHT22;11649;48.090;9.754;2022-08-21T12:13:38;23.20;99.90
22966;DHT22;11649;48.090;9.754;2022-08-21T12:16:27;23.30;96.90
22966;DHT22;11649;48.090;9.754;2022-08-21T12:19:14;23.40;98.30
22966;DHT22;11649;48.090;9.754;2022-08-21T12:26:59;23.60;97.20
22966;DHT22;11649;48.090;9.754;2022-08-21T12:29:37;23.50;98.10
22966;DHT22;11649;48.090;9.754;2022-08-21T12:34:42;23.00;99.90
22966;DHT22;11649;48.090;9.754;2022-08-21T12:39:59;22.80;99.90
22966;DHT22;11649;48.090;9.754;2022-08-21T12:42:37;22.70;99.90
22966;DHT22;11649;48.090;9.754;2022-08-21T12:45:16;22.70;99.90
22966;DHT22;11649;48.090;9.754;2022-08-21T12:48:06;22.80;99.90
22966;DHT22;11649;48.090;9.754;2022-08-21T12:50:41;22.80;99.30
22966;DHT22;11649;48.090;9.754;2022-08-21T12:55:46;23.10;99.40
22966;DHT22;11649;48.090;9.754;2022-08-21T12:58:31;23.10;99.00
22966;DHT22;11649;48.090;9.754;2022-08-21T13:01:06;23.50;98.60
22966;DHT22;11649;48.090;9.754;2022-08-21T13:03:37;23.60;98.60
22966;DHT22;11649;48.090;9.754;2022-08-21T13:06:05;23.70;98.00
22966;DHT22;11649;48.090;9.754;2022-08-21T13:08:35;23.50;97.00
22966;DHT22;11649;48.090;9.754;2022-08-21T13:11:09;23.60;96.30
22966;DHT22;11649;48.090;9.754;2022-08-21T13:13:41;23.70;97.60
22966;DHT22;11649;48.090;9.754;2022-08-21T13:16:24;23.60;97.50
22966;DHT22;11649;48.090;9.754;2022-08-21T13:21:21;23.70;97.10
22966;DHT22;11649;48.090;9.754;2022-08-21T13:23:53;24.00;97.60
22966;DHT22;11649;48.090;9.754;2022-08-21T13:26:21;24.10;98.00
22966;DHT22;11649;48.090;9.754;2022-08-21T13:28:49;24.40;97.60
22966;DHT22;11649;48.090;9.754;2022-08-21T13:31:26;24.70;95.20
22966;DHT22;11649;48.090;9.754;2022-08-21T13:33:54;24.60;97.50
22966;DHT22;11649;48.090;9.754;2022-08-21T13:36:26;24.80;95.90
22966;DHT22;11649;48.090;9.754;2022-08-21T13:38:55;24.80;96.50
22966;DHT22;11649;48.090;9.754;2022-08-21T13:41:43;24.30;97.50
22966;DHT22;11649;48.090;9.754;2022-08-21T13:47:01;24.60;96.40
22966;DHT22;11649;48.090;9.754;2022-08-21T13:49:34;25.00;96.20
22966;DHT22;11649;48.090;9.754;2022-08-21T13:52:03;25.50;94.50
22966;DHT22;11649;48.090;9.754;2022-08-21T13:54:41;26.50;93.00
22966;DHT22;11649;48.090;9.754;2022-08-21T13:57:27;27.40;92.90
22966;DHT22;11649;48.090;9.754;2022-08-21T14:00:19;27.60;96.90
22966;DHT22;11649;48.090;9.754;2022-08-21T14:02:50;28.40;97.20
22966;DHT22;11649;48.090;9.754;2022-08-21T14:05:22;29.40;60.20
22966;DHT22;11649;48.090;9.754;2022-08-21T14:08:10;31.10;57.30
22966;DHT22;11649;48.090;9.754;2022-08-21T14:10:49;32.60;51.80
22966;DHT22;11649;48.090;9.754;2022-08-21T14:13:38;33.00;44.90
22966;DHT22;11649;48.090;9.754;2022-08-21T14:19:11;35.90;43.00
22966;DHT22;11649;48.090;9.754;2022-08-21T14:21:44;36.60;39.80
22966;DHT22;11649;48.090;9.754;2022-08-21T14:26:51;37.50;36.50
22966;DHT22;11649;48.090;9.754;2022-08-21T14:29:22;35.50;38.00
22966;DHT22;11649;48.090;9.754;2022-08-21T14:31:56;34.20;41.40
22966;DHT22;11649;48.090;9.754;2022-08-21T14:34:26;33.00;44.30
22966;DHT22;11649;48.090;9.754;2022-08-21T14:36:58;32.70;43.50
22966;DHT22;11649;48.090;9.754;2022-08-21T14:39:25;33.40;43.10
22966;DHT22;11649;48.090;9.754;2022-08-21T14:41:51;34.50;45.60
22966;DHT22;11649;48.090;9.754;2022-08-21T14:44:19;35.60;38.50
22966;DHT22;11649;48.090;9.754;2022-08-21T14:46:46;35.80;40.80
22966;DHT22;11649;48.090;9.754;2022-08-21T14:49:24;36.00;38.50
22966;DHT22;11649;48.090;9.754;2022-08-21T14:51:53;36.20;37.50
22966;DHT22;11649;48.090;9.754;2022-08-21T14:54:25;35.70;34.90
22966;DHT22;11649;48.090;9.754;2022-08-21T14:57:00;34.90;41.60
22966;DHT22;11649;48.090;9.754;2022-08-21T14:59:27;35.20;37.20
22966;DHT22;11649;48.090;9.754;2022-08-21T15:01:54;34.20;38.60
22966;DHT22;11649;48.090;9.754;2022-08-21T15:04:24;33.10;41.90
22966;DHT22;11649;48.090;9.754;2022-08-21T15:06:51;33.30;46.90
22966;DHT22;11649;48.090;9.754;2022-08-21T15:09:18;34.40;43.50
22966;DHT22;11649;48.090;9.754;2022-08-21T15:11:45;33.80;39.40
22966;DHT22;11649;48.090;9.754;2022-08-21T15:14:18;33.40;41.00
22966;DHT22;11649;48.090;9.754;2022-08-21T15:16:47;32.90;41.50
22966;DHT22;11649;48.090;9.754;2022-08-21T15:19:14;33.70;40.10
22966;DHT22;11649;48.090;9.754;2022-08-21T15:21:41;33.50;41.70
22966;DHT22;11649;48.090;9.754;2022-08-21T15:24:08;33.70;40.70
22966;DHT22;11649;48.090;9.754;2022-08-21T15:26:35;33.70;39.60
22966;DHT22;11649;48.090;9.754;2022-08-21T15:29:03;33.70;38.80
22966;DHT22;11649;48.090;9.754;2022-08-21T15:31:32;33.10;39.30
22966;DHT22;11649;48.090;9.754;2022-08-21T15:33:59;32.50;39.30
22966;DHT22;11649;48.090;9.754;2022-08-21T15:36:26;33.40;43.30
22966;DHT22;11649;48.090;9.754;2022-08-21T15:38:53;34.70;41.40
22966;DHT22;11649;48.090;9.754;2022-08-21T15:41:19;34.70;41.50
22966;DHT22;11649;48.090;9.754;2022-08-21T15:43:49;34.30;40.40
22966;DHT22;11649;48.090;9.754;2022-08-21T15:46:17;33.50;44.90
22966;DHT22;11649;48.090;9.754;2022-08-21T15:48:45;33.70;43.00
22966;DHT22;11649;48.090;9.754;2022-08-21T15:51:14;34.40;41.40
22966;DHT22;11649;48.090;9.754;2022-08-21T15:53:42;35.20;37.10
22966;DHT22;11649;48.090;9.754;2022-08-21T15:56:32;35.20;40.10
22966;DHT22;11649;48.090;9.754;2022-08-21T15:59:04;34.00;40.50
22966;DHT22;11649;48.090;9.754;2022-08-21T16:01:34;33.80;42.10
22966;DHT22;11649;48.090;9.754;2022-08-21T16:04:18;33.40;42.50
22966;DHT22;11649;48.090;9.754;2022-08-21T16:06:45;32.50;41.20
22966;DHT22;11649;48.090;9.754;2022-08-21T16:09:20;31.10;42.80
22966;DHT22;11649;48.090;9.754;2022-08-21T16:11:47;30.80;44.70
22966;DHT22;11649;48.090;9.754;2022-08-21T16:14:15;30.60;46.90
22966;DHT22;11649;48.090;9.754;2022-08-21T16:16:42;31.00;45.80
22966;DHT22;11649;48.090;9.754;2022-08-21T16:19:10;30.50;46.10
22966;DHT22;11649;48.090;9.754;2022-08-21T16:21:37;30.20;46.30
22966;DHT22;11649;48.090;9.754;2022-08-21T16:24:04;30.10;47.30
22966;DHT22;11649;48.090;9.754;2022-08-21T16:26:31;29.70;49.00
22966;DHT22;11649;48.090;9.754;2022-08-21T16:29:00;29.70;48.10
22966;DHT22;11649;48.090;9.754;2022-08-21T16:31:28;29.30;46.90
22966;DHT22;11649;48.090;9.754;2022-08-21T16:33:56;28.80;48.60
22966;DHT22;11649;48.090;9.754;2022-08-21T16:36:24;28.40;51.20
22966;DHT22;11649;48.090;9.754;2022-08-21T16:38:55;28.00;47.00
22966;DHT22;11649;48.090;9.754;2022-08-21T16:41:24;27.80;47.10
22966;DHT22;11649;48.090;9.754;2022-08-21T16:43:52;28.00;44.60
22966;DHT22;11649;48.090;9.754;2022-08-21T16:46:21;27.30;48.50
22966;DHT22;11649;48.090;9.754;2022-08-21T16:48:48;27.00;49.20
22966;DHT22;11649;48.090;9.754;2022-08-21T16:51:15;26.80;50.70
22966;DHT22;11649;48.090;9.754;2022-08-21T16:53:42;26.70;50.00
22966;DHT22;11649;48.090;9.754;2022-08-21T16:56:11;26.60;50.40
22966;DHT22;11649;48.090;9.754;2022-08-21T16:58:42;26.40;50.70
22966;DHT22;11649;48.090;9.754;2022-08-21T17:01:13;26.40;50.80
22966;DHT22;11649;48.090;9.754;2022-08-21T17:03:45;26.50;52.80
22966;DHT22;11649;48.090;9.754;2022-08-21T17:06:13;26.00;52.00
22966;DHT22;11649;48.090;9.754;2022-08-21T17:08:40;25.70;53.10
22966;DHT22;11649;48.090;9.754;2022-08-21T17:11:13;25.60;54.10
22966;DHT22;11649;48.090;9.754;2022-08-21T17:14:07;25.50;54.50